Mytishchi, Russia
Current Conditions -  °F | °C
As of 12:30 PM on Saturday 29 Nov 2014 (Local Time) from UUEE Reporting Station
Broken Clouds Broken Clouds  
Wind Chill:   Ceiling: 10000
Heat Index: 18°   Visibility: 4mi
Dew Point: 14°   Wind: 7mph
Humidity: 86%   Direction: 70°ENE
Pressure: 30.59"   Gusts: NA
Location:  55.91°N, 37.73°E
Report Text: UUEE 290930Z 07003MPS 7000 BKN100 BKN200 M08/M10 Q1036 57410157NOSIG
Loading
Personal Weather Stations






























Interactive Weather Map New forecast layout! Learn more

10-Day Weather Forecast

Advertisements
Track Severe Weather on mobile